sensor_id;sensor_type;location;lat;lon;timestamp;temperature;humidity
10278;DHT22;5184;51.376;7.148;2023-05-18T00:00:21;6.70;99.90
10278;DHT22;5184;51.376;7.148;2023-05-18T00:02:48;6.70;99.90
10278;DHT22;5184;51.376;7.148;2023-05-18T00:05:15;6.70;99.90
10278;DHT22;5184;51.376;7.148;2023-05-18T00:07:43;6.60;99.90
10278;DHT22;5184;51.376;7.148;2023-05-18T00:10:11;6.60;99.90
10278;DHT22;5184;51.376;7.148;2023-05-18T00:12:38;6.50;99.90
10278;DHT22;5184;51.376;7.148;2023-05-18T00:15:06;6.40;1.00
10278;DHT22;5184;51.376;7.148;2023-05-18T00:17:32;6.40;1.00
10278;DHT22;5184;51.376;7.148;2023-05-18T00:20:00;6.40;1.00
10278;DHT22;5184;51.376;7.148;2023-05-18T00:22:26;6.30;1.00
10278;DHT22;5184;51.376;7.148;2023-05-18T00:24:53;6.30;1.00
10278;DHT22;5184;51.376;7.148;2023-05-18T00:27:20;6.30;1.00
10278;DHT22;5184;51.376;7.148;2023-05-18T00:29:48;6.20;1.00
10278;DHT22;5184;51.376;7.148;2023-05-18T00:32:14;6.20;1.00
10278;DHT22;5184;51.376;7.148;2023-05-18T00:34:41;6.20;1.00
10278;DHT22;5184;51.376;7.148;2023-05-18T00:37:08;6.10;1.00
10278;DHT22;5184;51.376;7.148;2023-05-18T00:39:35;6.10;1.00
10278;DHT22;5184;51.376;7.148;2023-05-18T00:42:03;6.10;1.00
10278;DHT22;5184;51.376;7.148;2023-05-18T00:44:30;6.00;1.00
10278;DHT22;5184;51.376;7.148;2023-05-18T00:46:56;6.00;1.00
10278;DHT22;5184;51.376;7.148;2023-05-18T00:49:24;6.00;1.00
10278;DHT22;5184;51.376;7.148;2023-05-18T00:51:50;6.00;1.00
10278;DHT22;5184;51.376;7.148;2023-05-18T00:54:17;5.90;1.00
10278;DHT22;5184;51.376;7.148;2023-05-18T00:56:43;5.90;1.00
10278;DHT22;5184;51.376;7.148;2023-05-18T00:59:10;5.90;1.00
10278;DHT22;5184;51.376;7.148;2023-05-18T01:01:36;5.80;1.00
10278;DHT22;5184;51.376;7.148;2023-05-18T01:04:03;5.80;1.00
10278;DHT22;5184;51.376;7.148;2023-05-18T01:06:30;5.70;1.00
10278;DHT22;5184;51.376;7.148;2023-05-18T01:08:58;5.70;52.20
10278;DHT22;5184;51.376;7.148;2023-05-18T01:11:28;5.60;99.90
10278;DHT22;5184;51.376;7.148;2023-05-18T01:14:03;5.60;99.90
10278;DHT22;5184;51.376;7.148;2023-05-18T01:16:29;5.60;99.90
10278;DHT22;5184;51.376;7.148;2023-05-18T01:18:59;5.60;99.90
10278;DHT22;5184;51.376;7.148;2023-05-18T01:21:27;5.50;99.90
10278;DHT22;5184;51.376;7.148;2023-05-18T01:24:29;5.40;99.90
10278;DHT22;5184;51.376;7.148;2023-05-18T01:26:35;5.40;99.90
10278;DHT22;5184;51.376;7.148;2023-05-18T01:29:04;5.40;99.90
10278;DHT22;5184;51.376;7.148;2023-05-18T01:31:28;5.40;1.00
10278;DHT22;5184;51.376;7.148;2023-05-18T01:33:55;5.40;1.00
10278;DHT22;5184;51.376;7.148;2023-05-18T01:36:21;5.40;1.00
10278;DHT22;5184;51.376;7.148;2023-05-18T01:38:49;5.30;1.00
10278;DHT22;5184;51.376;7.148;2023-05-18T01:41:21;5.30;1.00
10278;DHT22;5184;51.376;7.148;2023-05-18T01:44:00;5.30;1.00
10278;DHT22;5184;51.376;7.148;2023-05-18T01:46:30;5.30;1.00
10278;DHT22;5184;51.376;7.148;2023-05-18T01:48:53;5.30;1.00
10278;DHT22;5184;51.376;7.148;2023-05-18T01:51:20;5.20;26.90
10278;DHT22;5184;51.376;7.148;2023-05-18T01:53:52;5.10;99.90
10278;DHT22;5184;51.376;7.148;2023-05-18T01:56:18;5.10;99.90
10278;DHT22;5184;51.376;7.148;2023-05-18T01:58:47;5.10;99.90
10278;DHT22;5184;51.376;7.148;2023-05-18T02:01:13;5.10;68.10
10278;DHT22;5184;51.376;7.148;2023-05-18T02:03:42;5.10;18.00
10278;DHT22;5184;51.376;7.148;2023-05-18T02:06:08;5.10;59.90
10278;DHT22;5184;51.376;7.148;2023-05-18T02:08:34;5.10;44.40
10278;DHT22;5184;51.376;7.148;2023-05-18T02:11:01;5.10;99.90
10278;DHT22;5184;51.376;7.148;2023-05-18T02:13:27;5.10;99.90
10278;DHT22;5184;51.376;7.148;2023-05-18T02:15:54;5.20;99.90
10278;DHT22;5184;51.376;7.148;2023-05-18T02:18:21;4.90;99.90
10278;DHT22;5184;51.376;7.148;2023-05-18T02:20:48;5.20;99.90
10278;DHT22;5184;51.376;7.148;2023-05-18T02:23:15;5.20;99.90
10278;DHT22;5184;51.376;7.148;2023-05-18T02:25:41;5.30;99.90
10278;DHT22;5184;51.376;7.148;2023-05-18T02:28:08;5.30;99.90
10278;DHT22;5184;51.376;7.148;2023-05-18T02:30:34;5.30;99.90
10278;DHT22;5184;51.376;7.148;2023-05-18T02:33:01;5.30;54.00
10278;DHT22;5184;51.376;7.148;2023-05-18T02:35:28;5.20;99.90
10278;DHT22;5184;51.376;7.148;2023-05-18T02:37:56;5.20;99.90
10278;DHT22;5184;51.376;7.148;2023-05-18T02:40:23;5.20;99.90
10278;DHT22;5184;51.376;7.148;2023-05-18T02:42:50;5.20;99.90
10278;DHT22;5184;51.376;7.148;2023-05-18T02:45:16;5.20;99.90
10278;DHT22;5184;51.376;7.148;2023-05-18T02:47:43;5.20;99.90
10278;DHT22;5184;51.376;7.148;2023-05-18T02:50:10;5.10;99.90
10278;DHT22;5184;51.376;7.148;2023-05-18T02:52:37;5.10;99.90
10278;DHT22;5184;51.376;7.148;2023-05-18T02:55:04;5.10;99.90
10278;DHT22;5184;51.376;7.148;2023-05-18T02:57:31;5.00;99.90
10278;DHT22;5184;51.376;7.148;2023-05-18T02:59:58;4.90;99.90
10278;DHT22;5184;51.376;7.148;2023-05-18T03:02:26;4.90;99.90
10278;DHT22;5184;51.376;7.148;2023-05-18T03:04:52;4.90;99.90
10278;DHT22;5184;51.376;7.148;2023-05-18T03:07:20;4.90;99.90
10278;DHT22;5184;51.376;7.148;2023-05-18T03:09:46;4.90;99.90
10278;DHT22;5184;51.376;7.148;2023-05-18T03:12:13;4.80;99.90
10278;DHT22;5184;51.376;7.148;2023-05-18T03:14:40;4.80;1.00
10278;DHT22;5184;51.376;7.148;2023-05-18T03:17:06;4.80;1.00
10278;DHT22;5184;51.376;7.148;2023-05-18T03:19:33;4.80;1.00
10278;DHT22;5184;51.376;7.148;2023-05-18T03:21:59;4.80;1.00
10278;DHT22;5184;51.376;7.148;2023-05-18T03:24:26;4.80;1.00
10278;DHT22;5184;51.376;7.148;2023-05-18T03:26:53;4.70;1.00
10278;DHT22;5184;51.376;7.148;2023-05-18T03:29:20;4.70;2.10
10278;DHT22;5184;51.376;7.148;2023-05-18T03:31:48;4.70;1.00
10278;DHT22;5184;51.376;7.148;2023-05-18T03:34:14;4.70;1.00
10278;DHT22;5184;51.376;7.148;2023-05-18T03:36:41;4.70;9.40
10278;DHT22;5184;51.376;7.148;2023-05-18T03:39:08;4.70;99.90
10278;DHT22;5184;51.376;7.148;2023-05-18T03:41:35;4.60;99.90
10278;DHT22;5184;51.376;7.148;2023-05-18T03:44:02;4.60;99.90
10278;DHT22;5184;51.376;7.148;2023-05-18T03:46:28;4.60;99.90
10278;DHT22;5184;51.376;7.148;2023-05-18T03:48:55;4.60;99.90
10278;DHT22;5184;51.376;7.148;2023-05-18T03:51:21;4.60;99.90
10278;DHT22;5184;51.376;7.148;2023-05-18T03:53:48;4.60;1.00
10278;DHT22;5184;51.376;7.148;2023-05-18T03:56:15;4.60;1.00
10278;DHT22;5184;51.376;7.148;2023-05-18T03:58:43;4.60;1.00
10278;DHT22;5184;51.376;7.148;2023-05-18T04:01:09;4.60;1.00
10278;DHT22;5184;51.376;7.148;2023-05-18T04:03:36;4.60;1.00
10278;DHT22;5184;51.376;7.148;2023-05-18T04:06:03;4.70;1.00
10278;DHT22;5184;51.376;7.148;2023-05-18T04:08:30;4.70;1.00
10278;DHT22;5184;51.376;7.148;2023-05-18T04:10:58;4.70;99.90
10278;DHT22;5184;51.376;7.148;2023-05-18T04:13:25;4.80;99.90
10278;DHT22;5184;51.376;7.148;2023-05-18T04:15:53;4.80;99.90
10278;DHT22;5184;51.376;7.148;2023-05-18T04:18:20;4.90;99.90
10278;DHT22;5184;51.376;7.148;2023-05-18T04:20:47;4.90;99.90
10278;DHT22;5184;51.376;7.148;2023-05-18T04:23:15;4.90;99.90
10278;DHT22;5184;51.376;7.148;2023-05-18T04:25:42;5.00;99.90
10278;DHT22;5184;51.376;7.148;2023-05-18T04:28:09;5.00;99.90
10278;DHT22;5184;51.376;7.148;2023-05-18T04:30:36;5.00;99.90
10278;DHT22;5184;51.376;7.148;2023-05-18T04:33:02;5.00;99.90
10278;DHT22;5184;51.376;7.148;2023-05-18T04:35:29;5.00;1.00
10278;DHT22;5184;51.376;7.148;2023-05-18T04:37:56;5.10;1.00
10278;DHT22;5184;51.376;7.148;2023-05-18T04:40:24;5.10;1.00
10278;DHT22;5184;51.376;7.148;2023-05-18T04:42:51;5.10;1.00
10278;DHT22;5184;51.376;7.148;2023-05-18T04:45:18;5.10;1.00
10278;DHT22;5184;51.376;7.148;2023-05-18T04:47:47;5.10;1.00
10278;DHT22;5184;51.376;7.148;2023-05-18T04:50:14;5.20;99.90
10278;DHT22;5184;51.376;7.148;2023-05-18T04:52:42;5.30;99.90
10278;DHT22;5184;51.376;7.148;2023-05-18T04:55:09;5.30;99.90
10278;DHT22;5184;51.376;7.148;2023-05-18T04:57:35;5.40;99.90
10278;DHT22;5184;51.376;7.148;2023-05-18T05:00:02;5.40;99.90
10278;DHT22;5184;51.376;7.148;2023-05-18T05:02:30;5.50;99.90
10278;DHT22;5184;51.376;7.148;2023-05-18T05:04:58;5.50;1.00
10278;DHT22;5184;51.376;7.148;2023-05-18T05:07:25;5.60;1.00
10278;DHT22;5184;51.376;7.148;2023-05-18T05:09:52;5.60;1.00
10278;DHT22;5184;51.376;7.148;2023-05-18T05:12:20;5.60;99.90
10278;DHT22;5184;51.376;7.148;2023-05-18T05:14:47;5.70;99.90
10278;DHT22;5184;51.376;7.148;2023-05-18T05:17:14;5.80;99.90
10278;DHT22;5184;51.376;7.148;2023-05-18T05:19:41;6.00;99.90
10278;DHT22;5184;51.376;7.148;2023-05-18T05:22:08;5.80;99.90
10278;DHT22;5184;51.376;7.148;2023-05-18T05:24:34;5.80;99.90
10278;DHT22;5184;51.376;7.148;2023-05-18T05:27:01;5.80;1.00
10278;DHT22;5184;51.376;7.148;2023-05-18T05:29:27;5.90;1.00
10278;DHT22;5184;51.376;7.148;2023-05-18T05:31:55;6.00;1.00
10278;DHT22;5184;51.376;7.148;2023-05-18T05:34:21;6.00;1.00
10278;DHT22;5184;51.376;7.148;2023-05-18T05:36:48;6.00;1.00
10278;DHT22;5184;51.376;7.148;2023-05-18T05:39:15;6.20;99.90
10278;DHT22;5184;51.376;7.148;2023-05-18T05:41:43;6.20;50.60
10278;DHT22;5184;51.376;7.148;2023-05-18T05:44:09;6.20;44.90
10278;DHT22;5184;51.376;7.148;2023-05-18T05:46:36;6.30;68.90
10278;DHT22;5184;51.376;7.148;2023-05-18T05:49:02;6.40;13.70
10278;DHT22;5184;51.376;7.148;2023-05-18T05:51:30;6.50;99.90
10278;DHT22;5184;51.376;7.148;2023-05-18T05:53:57;6.50;99.90
10278;DHT22;5184;51.376;7.148;2023-05-18T05:56:25;6.60;99.90
10278;DHT22;5184;51.376;7.148;2023-05-18T05:58:52;6.60;99.90
10278;DHT22;5184;51.376;7.148;2023-05-18T06:01:18;6.60;99.90
10278;DHT22;5184;51.376;7.148;2023-05-18T06:03:45;6.70;1.00
10278;DHT22;5184;51.376;7.148;2023-05-18T06:06:12;6.80;1.00
10278;DHT22;5184;51.376;7.148;2023-05-18T06:08:38;6.80;99.90
10278;DHT22;5184;51.376;7.148;2023-05-18T06:11:05;6.90;99.90
10278;DHT22;5184;51.376;7.148;2023-05-18T06:13:31;6.90;99.90
10278;DHT22;5184;51.376;7.148;2023-05-18T06:15:58;7.00;1.00
10278;DHT22;5184;51.376;7.148;2023-05-18T06:18:25;7.10;99.90
10278;DHT22;5184;51.376;7.148;2023-05-18T06:20:53;7.20;99.90
10278;DHT22;5184;51.376;7.148;2023-05-18T06:23:20;7.30;54.00
10278;DHT22;5184;51.376;7.148;2023-05-18T06:25:48;7.40;1.00
10278;DHT22;5184;51.376;7.148;2023-05-18T06:28:15;7.40;1.00
10278;DHT22;5184;51.376;7.148;2023-05-18T06:30:42;7.50;1.00
10278;DHT22;5184;51.376;7.148;2023-05-18T06:33:09;7.60;1.00
10278;DHT22;5184;51.376;7.148;2023-05-18T06:35:37;7.60;1.00
10278;DHT22;5184;51.376;7.148;2023-05-18T06:38:03;7.60;1.00
10278;DHT22;5184;51.376;7.148;2023-05-18T06:40:30;7.70;99.90
10278;DHT22;5184;51.376;7.148;2023-05-18T06:42:57;7.80;99.90
10278;DHT22;5184;51.376;7.148;2023-05-18T06:45:23;7.80;99.90
10278;DHT22;5184;51.376;7.148;2023-05-18T06:47:50;7.90;99.90
10278;DHT22;5184;51.376;7.148;2023-05-18T06:50:17;8.00;99.90
10278;DHT22;5184;51.376;7.148;2023-05-18T06:52:45;8.10;99.90
10278;DHT22;5184;51.376;7.148;2023-05-18T06:55:12;8.20;99.90
10278;DHT22;5184;51.376;7.148;2023-05-18T06:57:38;8.20;99.90
10278;DHT22;5184;51.376;7.148;2023-05-18T07:00:06;8.20;1.00
10278;DHT22;5184;51.376;7.148;2023-05-18T07:02:32;8.30;1.00
10278;DHT22;5184;51.376;7.148;2023-05-18T07:04:59;8.40;1.00
10278;DHT22;5184;51.376;7.148;2023-05-18T07:07:26;8.40;1.00
10278;DHT22;5184;51.376;7.148;2023-05-18T07:09:52;8.50;99.90
10278;DHT22;5184;51.376;7.148;2023-05-18T07:12:19;8.50;1.00
10278;DHT22;5184;51.376;7.148;2023-05-18T07:14:46;8.70;1.00
10278;DHT22;5184;51.376;7.148;2023-05-18T07:17:13;8.80;99.90
10278;DHT22;5184;51.376;7.148;2023-05-18T07:19:41;8.90;99.90
10278;DHT22;5184;51.376;7.148;2023-05-18T07:22:08;9.00;99.90
10278;DHT22;5184;51.376;7.148;2023-05-18T07:24:35;9.00;99.90
10278;DHT22;5184;51.376;7.148;2023-05-18T07:27:03;9.10;99.90
10278;DHT22;5184;51.376;7.148;2023-05-18T07:29:30;9.20;99.90
10278;DHT22;5184;51.376;7.148;2023-05-18T07:31:58;9.20;99.90
10278;DHT22;5184;51.376;7.148;2023-05-18T07:34:24;9.20;99.90
10278;DHT22;5184;51.376;7.148;2023-05-18T07:36:51;9.30;95.10
10278;DHT22;5184;51.376;7.148;2023-05-18T07:39:17;9.30;99.90
10278;DHT22;5184;51.376;7.148;2023-05-18T07:41:44;9.40;99.90
10278;DHT22;5184;51.376;7.148;2023-05-18T07:44:11;9.50;26.70
10278;DHT22;5184;51.376;7.148;2023-05-18T07:46:37;9.50;1.00
10278;DHT22;5184;51.376;7.148;2023-05-18T07:49:04;9.60;1.00
10278;DHT22;5184;51.376;7.148;2023-05-18T07:51:30;9.70;99.90
10278;DHT22;5184;51.376;7.148;2023-05-18T07:53:57;9.80;1.20
10278;DHT22;5184;51.376;7.148;2023-05-18T07:56:24;9.80;1.00
10278;DHT22;5184;51.376;7.148;2023-05-18T07:58:50;9.90;1.00
10278;DHT22;5184;51.376;7.148;2023-05-18T08:01:17;10.00;1.00
10278;DHT22;5184;51.376;7.148;2023-05-18T08:03:43;10.00;99.90
10278;DHT22;5184;51.376;7.148;2023-05-18T08:06:10;10.00;1.00
10278;DHT22;5184;51.376;7.148;2023-05-18T08:08:37;10.20;1.00
10278;DHT22;5184;51.376;7.148;2023-05-18T08:11:05;10.30;1.00
10278;DHT22;5184;51.376;7.148;2023-05-18T08:13:32;10.40;99.90
10278;DHT22;5184;51.376;7.148;2023-05-18T08:15:59;10.30;99.90
10278;DHT22;5184;51.376;7.148;2023-05-18T08:18:26;10.30;99.90
10278;DHT22;5184;51.376;7.148;2023-05-18T08:20:53;10.40;99.90
10278;DHT22;5184;51.376;7.148;2023-05-18T08:23:19;10.50;99.90
10278;DHT22;5184;51.376;7.148;2023-05-18T08:25:46;10.60;1.00
10278;DHT22;5184;51.376;7.148;2023-05-18T08:28:12;10.50;1.00
10278;DHT22;5184;51.376;7.148;2023-05-18T08:30:40;10.70;1.00
10278;DHT22;5184;51.376;7.148;2023-05-18T08:33:07;10.80;1.00
10278;DHT22;5184;51.376;7.148;2023-05-18T08:35:34;10.80;99.90
10278;DHT22;5184;51.376;7.148;2023-05-18T08:38:01;10.80;99.90
10278;DHT22;5184;51.376;7.148;2023-05-18T08:40:31;10.90;99.90
10278;DHT22;5184;51.376;7.148;2023-05-18T08:43:01;11.00;99.90
10278;DHT22;5184;51.376;7.148;2023-05-18T08:45:29;11.10;99.90
10278;DHT22;5184;51.376;7.148;2023-05-18T08:47:54;11.10;99.90
10278;DHT22;5184;51.376;7.148;2023-05-18T08:50:19;11.20;99.90
10278;DHT22;5184;51.376;7.148;2023-05-18T08:52:46;11.30;99.90
10278;DHT22;5184;51.376;7.148;2023-05-18T08:55:13;11.40;99.90
10278;DHT22;5184;51.376;7.148;2023-05-18T08:57:41;11.40;99.90
10278;DHT22;5184;51.376;7.148;2023-05-18T09:00:09;11.40;65.60
10278;DHT22;5184;51.376;7.148;2023-05-18T09:02:35;11.40;68.10
10278;DHT22;5184;51.376;7.148;2023-05-18T09:05:02;11.40;99.90
10278;DHT22;5184;51.376;7.148;2023-05-18T09:07:29;11.50;99.90
10278;DHT22;5184;51.376;7.148;2023-05-18T09:09:55;11.60;1.00
10278;DHT22;5184;51.376;7.148;2023-05-18T09:12:23;11.70;99.90
10278;DHT22;5184;51.376;7.148;2023-05-18T09:14:50;12.00;72.30
10278;DHT22;5184;51.376;7.148;2023-05-18T09:17:17;11.80;99.90
10278;DHT22;5184;51.376;7.148;2023-05-18T09:19:45;11.80;99.90
10278;DHT22;5184;51.376;7.148;2023-05-18T09:22:11;11.80;99.90
10278;DHT22;5184;51.376;7.148;2023-05-18T09:24:38;11.90;99.90
10278;DHT22;5184;51.376;7.148;2023-05-18T09:27:04;12.00;99.90
10278;DHT22;5184;51.376;7.148;2023-05-18T09:29:31;12.00;99.40
10278;DHT22;5184;51.376;7.148;2023-05-18T09:32:00;12.10;1.00
10278;DHT22;5184;51.376;7.148;2023-05-18T09:34:25;12.00;4.20
10278;DHT22;5184;51.376;7.148;2023-05-18T09:36:52;11.90;1.00
10278;DHT22;5184;51.376;7.148;2023-05-18T09:39:19;11.90;1.00
10278;DHT22;5184;51.376;7.148;2023-05-18T09:41:46;12.00;48.30
10278;DHT22;5184;51.376;7.148;2023-05-18T09:44:12;12.00;34.20
10278;DHT22;5184;51.376;7.148;2023-05-18T09:46:40;12.20;1.00
10278;DHT22;5184;51.376;7.148;2023-05-18T09:49:07;12.20;1.00
10278;DHT22;5184;51.376;7.148;2023-05-18T09:51:35;12.20;1.00
10278;DHT22;5184;51.376;7.148;2023-05-18T09:54:02;12.20;1.00
10278;DHT22;5184;51.376;7.148;2023-05-18T09:56:33;12.20;1.00
10278;DHT22;5184;51.376;7.148;2023-05-18T09:58:58;12.20;1.00
10278;DHT22;5184;51.376;7.148;2023-05-18T10:01:24;12.30;1.00
10278;DHT22;5184;51.376;7.148;2023-05-18T10:03:51;12.40;1.00
10278;DHT22;5184;51.376;7.148;2023-05-18T10:06:17;12.40;1.00
10278;DHT22;5184;51.376;7.148;2023-05-18T10:08:44;12.40;1.00
10278;DHT22;5184;51.376;7.148;2023-05-18T10:11:10;12.30;1.00
10278;DHT22;5184;51.376;7.148;2023-05-18T10:13:37;12.40;99.90
10278;DHT22;5184;51.376;7.148;2023-05-18T10:16:06;12.60;1.00
10278;DHT22;5184;51.376;7.148;2023-05-18T10:18:33;12.60;1.00
10278;DHT22;5184;51.376;7.148;2023-05-18T10:20:59;12.70;1.00
10278;DHT22;5184;51.376;7.148;2023-05-18T10:23:27;12.80;1.00
10278;DHT22;5184;51.376;7.148;2023-05-18T10:25:52;12.70;1.00
10278;DHT22;5184;51.376;7.148;2023-05-18T10:28:20;12.90;1.00
10278;DHT22;5184;51.376;7.148;2023-05-18T10:30:46;12.90;1.00
10278;DHT22;5184;51.376;7.148;2023-05-18T10:33:12;12.90;1.00
10278;DHT22;5184;51.376;7.148;2023-05-18T10:35:39;13.10;1.00
10278;DHT22;5184;51.376;7.148;2023-05-18T10:38:05;13.10;1.00
10278;DHT22;5184;51.376;7.148;2023-05-18T10:40:32;13.30;1.00
10278;DHT22;5184;51.376;7.148;2023-05-18T10:43:00;13.30;99.90
10278;DHT22;5184;51.376;7.148;2023-05-18T10:45:27;13.20;1.00
10278;DHT22;5184;51.376;7.148;2023-05-18T10:47:54;13.30;1.00
10278;DHT22;5184;51.376;7.148;2023-05-18T10:50:21;13.30;1.00
10278;DHT22;5184;51.376;7.148;2023-05-18T10:52:49;13.40;1.00
10278;DHT22;5184;51.376;7.148;2023-05-18T10:55:16;13.50;1.00
10278;DHT22;5184;51.376;7.148;2023-05-18T10:57:45;13.50;1.00
10278;DHT22;5184;51.376;7.148;2023-05-18T11:00:11;13.50;1.00
10278;DHT22;5184;51.376;7.148;2023-05-18T11:02:38;13.60;1.00
10278;DHT22;5184;51.376;7.148;2023-05-18T11:05:05;13.80;99.90
10278;DHT22;5184;51.376;7.148;2023-05-18T11:07:33;13.80;99.90
10278;DHT22;5184;51.376;7.148;2023-05-18T11:10:01;13.90;99.90
10278;DHT22;5184;51.376;7.148;2023-05-18T11:12:27;13.90;99.90
10278;DHT22;5184;51.376;7.148;2023-05-18T11:14:53;13.90;99.90
10278;DHT22;5184;51.376;7.148;2023-05-18T11:17:23;13.80;99.90
10278;DHT22;5184;51.376;7.148;2023-05-18T11:20:09;14.00;99.90
10278;DHT22;5184;51.376;7.148;2023-05-18T11:22:43;14.00;99.90
10278;DHT22;5184;51.376;7.148;2023-05-18T11:25:08;14.00;99.90
10278;DHT22;5184;51.376;7.148;2023-05-18T11:27:34;14.10;99.90
10278;DHT22;5184;51.376;7.148;2023-05-18T11:30:01;14.20;99.90
10278;DHT22;5184;51.376;7.148;2023-05-18T11:32:28;14.20;99.90
10278;DHT22;5184;51.376;7.148;2023-05-18T11:34:55;14.30;99.90
10278;DHT22;5184;51.376;7.148;2023-05-18T11:39:59;14.30;99.90
10278;DHT22;5184;51.376;7.148;2023-05-18T11:42:30;14.30;99.90
10278;DHT22;5184;51.376;7.148;2023-05-18T11:44:53;14.40;99.90
10278;DHT22;5184;51.376;7.148;2023-05-18T11:47:22;14.40;99.90
10278;DHT22;5184;51.376;7.148;2023-05-18T11:49:48;14.30;99.90
10278;DHT22;5184;51.376;7.148;2023-05-18T11:52:17;14.30;99.90
10278;DHT22;5184;51.376;7.148;2023-05-18T11:54:50;14.30;99.90
10278;DHT22;5184;51.376;7.148;2023-05-18T11:57:16;14.40;44.40
10278;DHT22;5184;51.376;7.148;2023-05-18T11:59:44;14.40;99.90
10278;DHT22;5184;51.376;7.148;2023-05-18T12:02:12;14.50;99.90
10278;DHT22;5184;51.376;7.148;2023-05-18T12:04:43;14.40;99.90
10278;DHT22;5184;51.376;7.148;2023-05-18T12:07:09;14.70;99.90
10278;DHT22;5184;51.376;7.148;2023-05-18T12:09:38;15.00;99.90
10278;DHT22;5184;51.376;7.148;2023-05-18T12:12:03;15.00;92.20
10278;DHT22;5184;51.376;7.148;2023-05-18T12:14:30;15.20;1.00
10278;DHT22;5184;51.376;7.148;2023-05-18T12:16:58;15.30;1.00
10278;DHT22;5184;51.376;7.148;2023-05-18T12:19:25;15.50;1.00
10278;DHT22;5184;51.376;7.148;2023-05-18T12:21:52;15.60;1.00
10278;DHT22;5184;51.376;7.148;2023-05-18T12:24:20;15.60;1.00
10278;DHT22;5184;51.376;7.148;2023-05-18T12:26:47;15.60;1.00
10278;DHT22;5184;51.376;7.148;2023-05-18T12:29:14;15.60;1.00
10278;DHT22;5184;51.376;7.148;2023-05-18T12:31:42;15.60;1.00
10278;DHT22;5184;51.376;7.148;2023-05-18T12:34:09;15.50;1.00
10278;DHT22;5184;51.376;7.148;2023-05-18T12:36:41;15.50;1.00
10278;DHT22;5184;51.376;7.148;2023-05-18T12:39:06;15.40;1.00
10278;DHT22;5184;51.376;7.148;2023-05-18T12:41:33;15.60;1.00
10278;DHT22;5184;51.376;7.148;2023-05-18T12:44:00;15.50;1.00
10278;DHT22;5184;51.376;7.148;2023-05-18T12:46:27;15.70;1.00
10278;DHT22;5184;51.376;7.148;2023-05-18T12:48:55;15.70;1.00
10278;DHT22;5184;51.376;7.148;2023-05-18T12:51:21;15.70;1.00
10278;DHT22;5184;51.376;7.148;2023-05-18T12:53:48;15.70;1.00
10278;DHT22;5184;51.376;7.148;2023-05-18T12:56:14;15.70;1.00
10278;DHT22;5184;51.376;7.148;2023-05-18T12:58:53;15.60;1.00
10278;DHT22;5184;51.376;7.148;2023-05-18T13:01:09;15.60;1.00
10278;DHT22;5184;51.376;7.148;2023-05-18T13:03:38;15.80;1.00
10278;DHT22;5184;51.376;7.148;2023-05-18T13:06:05;15.80;1.00
10278;DHT22;5184;51.376;7.148;2023-05-18T13:08:32;16.20;1.00
10278;DHT22;5184;51.376;7.148;2023-05-18T13:11:02;16.20;1.00
10278;DHT22;5184;51.376;7.148;2023-05-18T13:13:28;16.10;1.00
10278;DHT22;5184;51.376;7.148;2023-05-18T13:15:55;16.10;1.00
10278;DHT22;5184;51.376;7.148;2023-05-18T13:18:21;16.20;1.00
10278;DHT22;5184;51.376;7.148;2023-05-18T13:20:49;16.40;1.00
10278;DHT22;5184;51.376;7.148;2023-05-18T13:23:18;16.40;1.00
10278;DHT22;5184;51.376;7.148;2023-05-18T13:25:44;16.40;1.00
10278;DHT22;5184;51.376;7.148;2023-05-18T13:28:12;16.40;1.00
10278;DHT22;5184;51.376;7.148;2023-05-18T13:30:39;16.50;1.00
10278;DHT22;5184;51.376;7.148;2023-05-18T13:33:05;16.70;1.00
10278;DHT22;5184;51.376;7.148;2023-05-18T13:35:34;16.80;1.00
10278;DHT22;5184;51.376;7.148;2023-05-18T13:38:01;16.80;1.00
10278;DHT22;5184;51.376;7.148;2023-05-18T13:40:28;16.70;1.00
10278;DHT22;5184;51.376;7.148;2023-05-18T13:42:56;16.70;1.00
10278;DHT22;5184;51.376;7.148;2023-05-18T13:45:23;16.90;1.00
10278;DHT22;5184;51.376;7.148;2023-05-18T13:47:51;17.00;1.00
10278;DHT22;5184;51.376;7.148;2023-05-18T13:50:19;17.00;1.00
10278;DHT22;5184;51.376;7.148;2023-05-18T13:52:45;17.00;1.00
10278;DHT22;5184;51.376;7.148;2023-05-18T13:55:11;17.10;1.00
10278;DHT22;5184;51.376;7.148;2023-05-18T13:57:38;17.00;1.00
10278;DHT22;5184;51.376;7.148;2023-05-18T14:00:05;17.10;1.00
10278;DHT22;5184;51.376;7.148;2023-05-18T14:02:31;17.30;1.00
10278;DHT22;5184;51.376;7.148;2023-05-18T14:04:58;17.30;1.00
10278;DHT22;5184;51.376;7.148;2023-05-18T14:07:25;17.40;1.00
10278;DHT22;5184;51.376;7.148;2023-05-18T14:09:52;17.60;1.00
10278;DHT22;5184;51.376;7.148;2023-05-18T14:12:19;17.60;1.00
10278;DHT22;5184;51.376;7.148;2023-05-18T14:14:47;17.70;1.00
10278;DHT22;5184;51.376;7.148;2023-05-18T14:17:14;17.70;99.90
10278;DHT22;5184;51.376;7.148;2023-05-18T14:19:41;17.70;99.90
10278;DHT22;5184;51.376;7.148;2023-05-18T14:22:07;17.70;99.90
10278;DHT22;5184;51.376;7.148;2023-05-18T14:24:34;17.70;1.00
10278;DHT22;5184;51.376;7.148;2023-05-18T14:27:00;17.90;1.00
10278;DHT22;5184;51.376;7.148;2023-05-18T14:29:27;18.00;1.00
10278;DHT22;5184;51.376;7.148;2023-05-18T14:31:54;18.30;1.00
10278;DHT22;5184;51.376;7.148;2023-05-18T14:34:22;18.50;99.90
10278;DHT22;5184;51.376;7.148;2023-05-18T14:36:49;18.50;99.90
10278;DHT22;5184;51.376;7.148;2023-05-18T14:39:16;18.60;99.90
10278;DHT22;5184;51.376;7.148;2023-05-18T14:41:43;18.50;99.90
10278;DHT22;5184;51.376;7.148;2023-05-18T14:44:10;19.20;99.90
10278;DHT22;5184;51.376;7.148;2023-05-18T14:46:36;20.00;99.90
10278;DHT22;5184;51.376;7.148;2023-05-18T14:49:03;20.60;99.90
10278;DHT22;5184;51.376;7.148;2023-05-18T14:51:29;21.10;99.90
10278;DHT22;5184;51.376;7.148;2023-05-18T14:53:57;20.90;99.90
10278;DHT22;5184;51.376;7.148;2023-05-18T14:56:24;21.00;99.90
10278;DHT22;5184;51.376;7.148;2023-05-18T14:58:51;21.00;99.90
10278;DHT22;5184;51.376;7.148;2023-05-18T15:01:17;20.80;99.90
10278;DHT22;5184;51.376;7.148;2023-05-18T15:03:44;20.70;99.90
10278;DHT22;5184;51.376;7.148;2023-05-18T15:06:11;20.50;99.90
10278;DHT22;5184;51.376;7.148;2023-05-18T15:08:37;20.30;99.90
10278;DHT22;5184;51.376;7.148;2023-05-18T15:11:04;20.30;99.90
10278;DHT22;5184;51.376;7.148;2023-05-18T15:13:32;20.10;99.90
10278;DHT22;5184;51.376;7.148;2023-05-18T15:15:58;20.10;99.90
10278;DHT22;5184;51.376;7.148;2023-05-18T15:18:25;20.00;99.90
10278;DHT22;5184;51.376;7.148;2023-05-18T15:20:52;19.90;99.90
10278;DHT22;5184;51.376;7.148;2023-05-18T15:23:19;19.90;99.90
10278;DHT22;5184;51.376;7.148;2023-05-18T15:25:46;20.00;99.90
10278;DHT22;5184;51.376;7.148;2023-05-18T15:28:14;20.10;99.90
10278;DHT22;5184;51.376;7.148;2023-05-18T15:30:41;20.10;99.90
10278;DHT22;5184;51.376;7.148;2023-05-18T15:33:08;20.10;99.90
10278;DHT22;5184;51.376;7.148;2023-05-18T15:35:34;20.20;99.90
10278;DHT22;5184;51.376;7.148;2023-05-18T15:38:01;20.20;99.90
10278;DHT22;5184;51.376;7.148;2023-05-18T15:40:27;20.30;99.90
10278;DHT22;5184;51.376;7.148;2023-05-18T15:42:54;20.20;99.90
10278;DHT22;5184;51.376;7.148;2023-05-18T15:45:21;20.20;99.90
10278;DHT22;5184;51.376;7.148;2023-05-18T15:47:49;20.10;99.90
10278;DHT22;5184;51.376;7.148;2023-05-18T15:50:15;20.10;99.90
10278;DHT22;5184;51.376;7.148;2023-05-18T15:52:42;20.10;99.90
10278;DHT22;5184;51.376;7.148;2023-05-18T15:55:09;20.10;99.90
10278;DHT22;5184;51.376;7.148;2023-05-18T15:57:35;20.10;99.90
10278;DHT22;5184;51.376;7.148;2023-05-18T16:00:02;20.50;99.90
10278;DHT22;5184;51.376;7.148;2023-05-18T16:02:28;20.70;99.90